Time;durP1;ratioP1;P1;durP2;ratioP2;P2;SDS_P1;SDS_P2;PMS_P1;PMS_P2;Temp;Humidity;BMP_temperature;BMP_pressure;BME280_temperature;BME280_humidity;BME280_pressure;Samples;Min_cycle;Max_cycle;Signal;HPM_P1;HPM_P2
2022/11/08 00:01:50;;;;;;;4.93;3.30;;;12.20;99.90;;;;;;5097915;28;20172;-66
2022/11/08 00:04:17;;;;;;;10.87;3.97;;;12.20;99.90;;;;;;5095820;28;20181;-66
2022/11/08 00:14:56;;;;;;;11.15;4.00;;;12.20;99.90;;;;;;5097202;28;20171;-66
2022/11/08 00:17:24;;;;;;;8.63;4.10;;;12.20;99.90;;;;;;5096784;28;20188;-66
2022/11/08 00:19:50;;;;;;;9.50;3.90;;;12.10;99.90;;;;;;5096854;28;20177;-66
2022/11/08 00:22:16;;;;;;;8.48;3.65;;;12.20;99.90;;;;;;5095484;28;20633;-66
2022/11/08 00:24:43;;;;;;;9.23;3.83;;;12.10;99.90;;;;;;5097044;28;20184;-66
2022/11/08 00:27:14;;;;;;;8.00;4.17;;;12.10;99.90;;;;;;5096960;28;20208;-66
2022/11/08 00:29:40;;;;;;;7.07;3.90;;;12.10;99.90;;;;;;5096876;28;20181;-66
2022/11/08 00:32:09;;;;;;;12.53;4.00;;;12.10;99.90;;;;;;5095271;28;20184;-66
2022/11/08 00:34:35;;;;;;;7.03;3.77;;;12.10;99.90;;;;;;5096381;28;20225;-66
2022/11/08 00:37:01;;;;;;;6.77;3.80;;;12.10;99.90;;;;;;5096439;28;20228;-66
2022/11/08 00:39:27;;;;;;;7.07;3.35;;;12.10;99.90;;;;;;5096480;28;20197;-66
2022/11/08 00:41:53;;;;;;;10.07;3.93;;;12.00;99.90;;;;;;5096105;28;20219;-66
2022/11/08 00:44:18;;;;;;;10.10;4.67;;;12.00;99.90;;;;;;5096222;28;20177;-66
2022/11/08 00:46:44;;;;;;;8.60;3.57;;;12.00;99.90;;;;;;5096195;28;20207;-66
2022/11/08 00:49:10;;;;;;;11.23;3.80;;;12.00;99.90;;;;;;5096525;28;20177;-66
2022/11/08 00:51:36;;;;;;;11.40;4.30;;;11.90;99.90;;;;;;5096148;28;20177;-66
2022/11/08 00:54:03;;;;;;;11.30;4.00;;;11.90;99.90;;;;;;5096372;28;20208;-66
2022/11/08 00:56:29;;;;;;;12.63;3.90;;;11.90;99.90;;;;;;5095853;28;20192;-66
2022/11/08 00:58:55;;;;;;;6.38;3.45;;;11.90;99.90;;;;;;5096669;28;20165;-65
2022/11/08 01:01:21;;;;;;;7.17;3.60;;;11.90;99.90;;;;;;5096253;28;20243;-66
2022/11/08 01:03:47;;;;;;;8.73;3.73;;;12.00;99.90;;;;;;5094713;28;20706;-65
2022/11/08 01:06:15;;;;;;;6.60;3.70;;;12.00;99.90;;;;;;5095937;28;20197;-66
2022/11/08 01:08:41;;;;;;;12.53;3.50;;;12.00;99.90;;;;;;5095903;28;20169;-65
2022/11/08 01:11:11;;;;;;;8.03;3.60;;;12.00;99.90;;;;;;5095867;28;20656;-66
2022/11/08 01:13:37;;;;;;;5.87;3.70;;;11.90;99.90;;;;;;5095593;28;20227;-66
2022/11/08 01:16:13;;;;;;;7.57;3.80;;;12.00;99.90;;;;;;5095648;28;20200;-66
2022/11/08 01:18:39;;;;;;;9.73;3.70;;;12.00;99.90;;;;;;5095883;28;20204;-66
2022/11/08 01:21:05;;;;;;;7.90;3.63;;;12.00;99.90;;;;;;5095619;28;20169;-66
2022/11/08 01:23:32;;;;;;;6.23;3.40;;;12.00;99.90;;;;;;5096239;28;20181;-66
2022/11/08 01:26:05;;;;;;;9.30;4.10;;;12.00;99.90;;;;;;5095984;28;20276;-66
2022/11/08 01:28:34;;;;;;;11.40;3.43;;;12.00;99.90;;;;;;5095574;28;20157;-66
2022/11/08 01:31:12;;;;;;;7.33;3.77;;;12.00;99.90;;;;;;5095730;28;20173;-66
2022/11/08 01:33:38;;;;;;;8.87;3.63;;;12.00;99.90;;;;;;5093978;28;20204;-66
2022/11/08 01:36:14;;;;;;;7.23;3.70;;;12.00;99.90;;;;;;5095426;28;20196;-66
2022/11/08 01:38:40;;;;;;;5.73;3.50;;;12.10;99.90;;;;;;5095355;28;20522;-66
2022/11/08 01:41:06;;;;;;;6.47;3.55;;;12.20;99.90;;;;;;5095301;28;20172;-66
2022/11/08 01:43:41;;;;;;;6.72;3.53;;;12.20;99.90;;;;;;5095014;28;20192;-66
2022/11/08 01:46:15;;;;;;;10.90;3.70;;;12.20;99.90;;;;;;5094960;28;20302;-65
2022/11/08 01:49:03;;;;;;;7.60;3.55;;;12.20;99.90;;;;;;5093885;28;20663;-66
2022/11/08 01:51:40;;;;;;;6.53;3.70;;;12.20;99.90;;;;;;5095393;28;20218;-66
2022/11/08 01:54:10;;;;;;;4.63;3.40;;;12.20;99.90;;;;;;5094996;28;20556;-66
2022/11/08 01:56:36;;;;;;;4.67;3.53;;;12.20;99.90;;;;;;5094924;28;20603;-66
2022/11/08 01:59:06;;;;;;;6.03;3.30;;;12.20;99.90;;;;;;5094875;28;20706;-66
2022/11/08 02:01:32;;;;;;;10.87;4.03;;;12.20;99.90;;;;;;5094531;28;20173;-65
2022/11/08 02:03:59;;;;;;;7.57;3.35;;;12.30;99.90;;;;;;5094728;28;20535;-66
2022/11/08 02:06:25;;;;;;;6.20;3.60;;;12.30;99.90;;;;;;5094752;28;20200;-66
2022/11/08 02:08:50;;;;;;;9.40;3.25;;;12.30;99.90;;;;;;5093512;28;20649;-66
2022/11/08 02:11:17;;;;;;;6.33;3.20;;;12.30;99.90;;;;;;5094524;28;20177;-66
2022/11/08 02:13:43;;;;;;;6.32;3.75;;;12.30;99.90;;;;;;5093242;28;20254;-66
2022/11/08 02:16:14;;;;;;;8.02;4.13;;;12.40;99.90;;;;;;5094499;28;20197;-66
2022/11/08 02:18:42;;;;;;;7.05;3.85;;;12.40;99.90;;;;;;5094543;28;20514;-66
2022/11/08 02:21:16;;;;;;;6.00;3.47;;;12.40;99.90;;;;;;5094890;28;20653;-66
2022/11/08 02:23:49;;;;;;;9.48;3.83;;;12.40;99.90;;;;;;5093281;28;20172;-66
2022/11/08 02:26:22;;;;;;;6.20;3.22;;;12.40;99.90;;;;;;5094242;28;20192;-66
2022/11/08 02:28:48;;;;;;;6.68;3.47;;;12.50;99.90;;;;;;5093121;28;20178;-66
2022/11/08 02:31:16;;;;;;;5.80;3.28;;;12.50;99.90;;;;;;5094711;28;20285;-65
2022/11/08 02:33:43;;;;;;;4.97;3.00;;;12.60;99.90;;;;;;5094281;28;20203;-66
2022/11/08 02:36:21;;;;;;;8.02;3.53;;;12.60;99.90;;;;;;5094470;28;20193;-66
2022/11/08 02:38:51;;;;;;;6.77;3.37;;;12.60;99.90;;;;;;5094189;28;20165;-66
2022/11/08 02:41:17;;;;;;;6.38;3.28;;;12.70;99.90;;;;;;5092832;28;20177;-66
2022/11/08 02:43:42;;;;;;;8.60;3.53;;;12.70;99.90;;;;;;5093810;28;20530;-66
2022/11/08 02:46:08;;;;;;;5.95;3.20;;;12.70;99.90;;;;;;5093933;28;20216;-66
2022/11/08 02:48:34;;;;;;;4.45;2.90;;;12.60;99.90;;;;;;5094002;28;20526;-66
2022/11/08 02:51:00;;;;;;;4.25;3.10;;;12.70;99.90;;;;;;5094402;28;20212;-66
2022/11/08 02:53:26;;;;;;;10.27;3.47;;;12.70;99.90;;;;;;5093839;28;20705;-66
2022/11/08 02:55:52;;;;;;;3.83;3.00;;;12.60;99.90;;;;;;5093694;28;20540;-67
2022/11/08 02:58:17;;;;;;;6.78;3.33;;;12.60;99.90;;;;;;5094118;28;20173;-66
2022/11/08 03:00:43;;;;;;;4.20;3.17;;;12.60;99.90;;;;;;5093823;28;20544;-65
2022/11/08 03:03:09;;;;;;;8.55;3.42;;;12.70;99.90;;;;;;5093908;28;20196;-66
2022/11/08 03:05:35;;;;;;;6.88;3.28;;;12.70;99.90;;;;;;5094124;28;20575;-66
2022/11/08 03:08:00;;;;;;;8.85;3.25;;;12.60;99.90;;;;;;5093988;28;20177;-66
2022/11/08 03:10:27;;;;;;;9.57;3.30;;;12.70;99.90;;;;;;5092321;28;20664;-66
2022/11/08 03:13:01;;;;;;;4.78;3.05;;;12.70;99.90;;;;;;5093311;28;20670;-66
2022/11/08 03:15:27;;;;;;;4.50;3.28;;;12.60;99.90;;;;;;5093081;28;20230;-66
2022/11/08 03:17:55;;;;;;;4.57;3.45;;;12.70;99.90;;;;;;5093607;28;20197;-66
2022/11/08 03:20:21;;;;;;;4.82;3.20;;;12.60;99.90;;;;;;5092473;28;20181;-66
2022/11/08 03:22:47;;;;;;;6.63;2.97;;;12.60;99.90;;;;;;5092384;28;20694;-66
2022/11/08 03:25:13;;;;;;;8.07;3.10;;;12.50;99.90;;;;;;5093754;28;20177;-66
2022/11/08 03:27:38;;;;;;;8.90;3.50;;;12.50;99.90;;;;;;5093407;28;20657;-66
2022/11/08 03:30:06;;;;;;;6.80;3.30;;;12.50;99.90;;;;;;5093512;28;20231;-66
2022/11/08 03:32:31;;;;;;;7.20;3.20;;;12.50;99.90;;;;;;5093412;28;20642;-66
2022/11/08 03:34:59;;;;;;;6.50;3.10;;;12.50;99.90;;;;;;5094122;28;20264;-66
2022/11/08 03:37:25;;;;;;;9.63;3.83;;;12.40;99.90;;;;;;5093475;28;20272;-66
2022/11/08 03:39:51;;;;;;;9.10;3.85;;;12.40;99.90;;;;;;5092316;28;20831;-66
2022/11/08 03:42:16;;;;;;;5.85;3.58;;;12.30;99.90;;;;;;5093425;28;20180;-66
2022/11/08 03:44:42;;;;;;;5.95;3.50;;;12.30;99.90;;;;;;5093714;28;20197;-66
2022/11/08 03:47:08;;;;;;;8.70;3.15;;;12.30;99.90;;;;;;5093832;28;20564;-66
2022/11/08 03:49:34;;;;;;;8.18;3.67;;;12.20;99.90;;;;;;5093338;28;20184;-66
2022/11/08 03:52:00;;;;;;;3.97;3.40;;;12.20;99.90;;;;;;5093355;28;20181;-66
2022/11/08 03:54:25;;;;;;;6.03;3.50;;;12.20;99.90;;;;;;5093254;28;20251;-66
2022/11/08 03:56:51;;;;;;;6.32;3.60;;;12.20;99.90;;;;;;5093094;28;20246;-66
2022/11/08 03:59:17;;;;;;;8.13;3.27;;;12.10;99.90;;;;;;5092016;28;20188;-66
2022/11/08 04:01:42;;;;;;;6.57;3.57;;;12.10;99.90;;;;;;5092028;28;20633;-66
2022/11/08 04:04:08;;;;;;;5.45;3.28;;;12.00;99.90;;;;;;5093336;28;20173;-66
2022/11/08 04:06:34;;;;;;;5.63;3.10;;;12.00;99.90;;;;;;5093221;28;20280;-66
2022/11/08 04:09:00;;;;;;;6.43;3.63;;;11.90;99.90;;;;;;5092046;28;20189;-66
2022/11/08 04:16:54;;;;;;;7.43;3.35;;;11.80;99.90;;;;;;5093119;28;20734;-66
2022/11/08 04:22:06;;;;;;;7.63;3.23;;;11.80;99.90;;;;;;5093698;28;20160;-66
2022/11/08 04:24:32;;;;;;;7.22;3.10;;;11.80;99.90;;;;;;5093435;28;20243;-66
2022/11/08 04:26:58;;;;;;;7.83;3.37;;;11.70;99.90;;;;;;5096960;28;20205;-66
2022/11/08 04:29:24;;;;;;;7.50;3.53;;;11.70;99.90;;;;;;5096730;28;20185;-67
2022/11/08 04:31:50;;;;;;;5.90;3.40;;;11.70;99.90;;;;;;5096709;28;20192;-66
2022/11/08 04:34:15;;;;;;;12.17;3.60;;;11.70;99.90;;;;;;5096630;28;20212;-66
2022/11/08 04:36:41;;;;;;;7.53;3.10;;;11.60;99.90;;;;;;5096545;28;20272;-66
2022/11/08 04:39:07;;;;;;;5.47;3.33;;;11.60;99.90;;;;;;5095315;28;20533;-66
2022/11/08 04:41:33;;;;;;;8.53;3.50;;;11.60;99.90;;;;;;5096196;28;20184;-66
2022/11/08 04:43:58;;;;;;;7.40;3.83;;;11.60;99.90;;;;;;5096637;28;20590;-67
2022/11/08 04:46:26;;;;;;;5.33;3.20;;;11.50;99.90;;;;;;5094891;28;20248;-66
2022/11/08 04:48:54;;;;;;;4.55;3.33;;;11.50;99.90;;;;;;5096540;28;20185;-66
2022/11/08 04:51:25;;;;;;;3.90;3.20;;;11.50;99.90;;;;;;5096259;28;20177;-66
2022/11/08 04:53:51;;;;;;;8.60;3.40;;;11.50;99.90;;;;;;5096341;28;20204;-66
2022/11/08 04:56:19;;;;;;;5.53;3.40;;;11.50;99.90;;;;;;5095932;28;20197;-67
2022/11/08 04:58:53;;;;;;;7.45;3.25;;;11.40;99.90;;;;;;5094765;28;20641;-67
2022/11/08 05:01:22;;;;;;;6.30;3.23;;;11.40;99.90;;;;;;5094810;28;20187;-67
2022/11/08 05:03:50;;;;;;;7.13;3.20;;;11.40;99.90;;;;;;5094703;28;20205;-67
2022/11/08 05:06:24;;;;;;;4.93;3.33;;;11.40;99.90;;;;;;5096003;28;20195;-67
2022/11/08 05:08:50;;;;;;;4.97;3.20;;;11.40;99.90;;;;;;5095971;28;20172;-66
2022/11/08 05:11:18;;;;;;;5.37;3.30;;;11.40;99.90;;;;;;5096034;28;20178;-67
2022/11/08 05:13:45;;;;;;;8.40;3.13;;;11.40;99.90;;;;;;5095676;28;20304;-66
2022/11/08 05:16:16;;;;;;;4.17;3.13;;;11.40;99.90;;;;;;5094578;28;20203;-67
2022/11/08 05:18:42;;;;;;;7.33;3.60;;;11.30;99.90;;;;;;5094491;28;20185;-67
2022/11/08 05:23:56;;;;;;;6.13;3.53;;;11.20;99.90;;;;;;5095721;28;20176;-67
2022/11/08 05:26:22;;;;;;;6.47;3.47;;;11.10;99.90;;;;;;5095581;28;20200;-67
2022/11/08 05:28:47;;;;;;;6.32;3.45;;;11.10;99.90;;;;;;5095955;28;20263;-67
2022/11/08 05:31:13;;;;;;;6.10;3.65;;;11.00;99.90;;;;;;5095365;28;20205;-67
2022/11/08 05:33:40;;;;;;;3.45;3.15;;;10.90;99.90;;;;;;5095701;28;20207;-67
2022/11/08 05:36:11;;;;;;;9.73;3.60;;;10.80;99.90;;;;;;5095421;28;20193;-67
2022/11/08 05:38:38;;;;;;;6.17;3.57;;;10.80;99.90;;;;;;5095207;28;20594;-68
2022/11/08 05:41:14;;;;;;;3.77;3.43;;;10.80;99.90;;;;;;5095293;28;20173;-67
2022/11/08 05:43:40;;;;;;;6.40;3.50;;;10.90;99.90;;;;;;5093944;28;20196;-68
2022/11/08 05:46:07;;;;;;;4.03;3.30;;;10.90;99.90;;;;;;5093647;28;20319;-68
2022/11/08 05:48:33;;;;;;;3.63;3.30;;;10.90;99.90;;;;;;5093924;28;20185;-67
2022/11/08 05:50:59;;;;;;;8.00;3.43;;;10.90;99.90;;;;;;5095308;28;20188;-68
2022/11/08 05:53:25;;;;;;;6.03;3.60;;;10.90;99.90;;;;;;5095251;28;20243;-67
2022/11/08 05:55:59;;;;;;;12.03;4.07;;;11.00;99.90;;;;;;5095031;28;20173;-67
2022/11/08 05:58:29;;;;;;;6.27;3.47;;;11.10;99.90;;;;;;5094889;28;20161;-67
2022/11/08 06:01:00;;;;;;;5.63;3.70;;;11.10;99.90;;;;;;5093552;28;20177;-67
2022/11/08 06:03:26;;;;;;;5.03;2.97;;;11.20;99.90;;;;;;5094820;28;20199;-67
2022/11/08 06:05:51;;;;;;;7.33;3.57;;;11.20;99.90;;;;;;5093413;28;20641;-67
2022/11/08 06:08:17;;;;;;;6.60;3.37;;;11.20;99.90;;;;;;5094703;28;20311;-67
2022/11/08 06:10:43;;;;;;;3.50;3.20;;;11.30;99.90;;;;;;5094690;28;20184;-67
2022/11/08 06:13:08;;;;;;;6.60;3.33;;;11.30;99.90;;;;;;5094349;28;20209;-67
2022/11/08 06:15:34;;;;;;;7.60;3.43;;;11.30;99.90;;;;;;5094606;28;20521;-67
2022/11/08 06:18:04;;;;;;;6.57;3.50;;;11.20;99.90;;;;;;5093207;28;20282;-67
2022/11/08 06:20:30;;;;;;;9.23;3.40;;;11.20;99.90;;;;;;5094804;28;20543;-67
2022/11/08 06:22:56;;;;;;;5.57;3.57;;;11.20;99.90;;;;;;5094416;28;20228;-67
2022/11/08 06:25:22;;;;;;;6.37;3.27;;;11.10;99.90;;;;;;5093001;28;20532;-67
2022/11/08 06:27:48;;;;;;;4.00;3.40;;;11.10;99.90;;;;;;5094332;28;20224;-67
2022/11/08 06:30:14;;;;;;;3.13;2.80;;;11.10;99.90;;;;;;5093100;28;20626;-67
2022/11/08 06:32:40;;;;;;;6.87;3.20;;;11.20;99.90;;;;;;5093378;28;20230;-70
2022/11/08 06:35:06;;;;;;;5.30;3.43;;;11.30;99.90;;;;;;5093001;28;20179;-70
2022/11/08 06:37:32;;;;;;;4.30;2.90;;;11.30;99.90;;;;;;5094198;28;20296;-70
2022/11/08 06:39:58;;;;;;;4.93;3.00;;;11.20;99.90;;;;;;5094311;28;20681;-70
2022/11/08 06:42:24;;;;;;;6.07;3.33;;;11.30;99.90;;;;;;5093984;28;20188;-70
2022/11/08 06:44:50;;;;;;;4.43;3.20;;;11.30;99.90;;;;;;5092859;28;20196;-70
2022/11/08 06:47:16;;;;;;;3.53;3.03;;;11.30;99.90;;;;;;5092721;28;20204;-70
2022/11/08 06:49:42;;;;;;;4.67;3.20;;;11.30;99.90;;;;;;5094507;28;20166;-70
2022/11/08 06:52:08;;;;;;;3.63;2.90;;;11.40;99.90;;;;;;5094348;28;20265;-70
2022/11/08 06:54:34;;;;;;;2.80;2.60;;;11.40;99.90;;;;;;5093830;28;20204;-70
2022/11/08 06:57:00;;;;;;;3.97;2.88;;;11.40;99.90;;;;;;5093774;28;20208;-70
2022/11/08 06:59:27;;;;;;;3.50;2.80;;;11.30;99.90;;;;;;5093873;28;20173;-70
2022/11/08 07:01:53;;;;;;;3.17;2.85;;;11.30;99.90;;;;;;5093843;28;20649;-70
2022/11/08 07:04:19;;;;;;;4.00;3.00;;;11.30;99.90;;;;;;5093853;28;20222;-70
2022/11/08 07:06:45;;;;;;;4.40;3.13;;;11.30;99.90;;;;;;5093742;28;20193;-70
2022/11/08 07:09:11;;;;;;;2.97;2.72;;;11.20;99.90;;;;;;5094413;28;20545;-70
2022/11/08 07:11:37;;;;;;;3.10;2.80;;;11.20;99.90;;;;;;5092310;28;20177;-68
2022/11/08 07:14:03;;;;;;;3.75;3.10;;;11.20;99.90;;;;;;5093615;28;20212;-68
2022/11/08 07:16:28;;;;;;;6.00;2.72;;;11.10;99.90;;;;;;5093774;28;20197;-68
2022/11/08 07:18:54;;;;;;;3.63;3.00;;;11.20;99.90;;;;;;5093523;28;20173;-68
2022/11/08 07:21:21;;;;;;;3.20;2.88;;;11.40;99.90;;;;;;5093708;28;20230;-68
2022/11/08 07:23:48;;;;;;;4.05;2.90;;;11.50;99.90;;;;;;5092378;28;20185;-68
2022/11/08 07:26:14;;;;;;;3.53;2.50;;;11.60;99.90;;;;;;5093786;28;20271;-68
2022/11/08 07:28:40;;;;;;;4.88;2.70;;;11.70;99.90;;;;;;5093342;28;20177;-68
2022/11/08 07:31:06;;;;;;;5.13;2.90;;;11.80;99.90;;;;;;5093793;28;20195;-68
2022/11/08 07:33:33;;;;;;;3.58;2.60;;;11.80;99.90;;;;;;5092241;28;20591;-68
2022/11/08 07:35:59;;;;;;;3.70;3.03;;;11.90;99.90;;;;;;5093374;28;20288;-68
2022/11/08 07:38:25;;;;;;;3.23;2.93;;;12.10;99.90;;;;;;5093703;28;20173;-68
2022/11/08 07:40:57;;;;;;;3.87;2.73;;;12.20;99.90;;;;;;5093409;28;20652;-70
2022/11/08 07:43:23;;;;;;;3.95;2.83;;;12.30;99.90;;;;;;5091865;28;20591;-70
2022/11/08 07:45:54;;;;;;;3.65;2.70;;;12.40;99.90;;;;;;5093106;28;20216;-70
2022/11/08 07:48:20;;;;;;;2.90;2.70;;;12.50;99.90;;;;;;5093350;28;20638;-70
2022/11/08 07:50:46;;;;;;;4.88;2.80;;;12.70;99.90;;;;;;5093334;28;20211;-70
2022/11/08 07:53:11;;;;;;;2.80;2.60;;;12.80;99.90;;;;;;5091838;28;20292;-70
2022/11/08 07:55:38;;;;;;;6.22;2.65;;;13.00;99.90;;;;;;5092002;28;20188;-70
2022/11/08 07:58:05;;;;;;;3.38;2.83;;;13.10;99.90;;;;;;5093143;28;20177;-70
2022/11/08 08:00:35;;;;;;;4.40;3.17;;;13.20;99.90;;;;;;5094630;28;20169;-70
2022/11/08 08:03:02;;;;;;;3.67;2.75;;;13.40;99.90;;;;;;5095781;28;20192;-70
2022/11/08 08:05:29;;;;;;;2.97;2.55;;;13.50;99.90;;;;;;5097209;28;20181;-70
2022/11/08 08:07:56;;;;;;;4.25;2.90;;;13.60;99.90;;;;;;5096984;28;20622;-70
2022/11/08 08:10:22;;;;;;;2.80;2.60;;;13.60;99.90;;;;;;5097004;28;20233;-70
2022/11/08 08:12:48;;;;;;;3.30;2.65;;;13.70;99.90;;;;;;5096709;28;20267;-70
2022/11/08 08:15:14;;;;;;;6.32;3.72;;;13.80;99.90;;;;;;5096934;28;20173;-70
2022/11/08 08:17:40;;;;;;;4.45;2.47;;;13.80;99.90;;;;;;5096803;28;20196;-70
2022/11/08 08:20:06;;;;;;;3.13;2.63;;;13.90;99.90;;;;;;5097154;28;20169;-70
2022/11/08 08:22:32;;;;;;;2.50;2.30;;;14.10;99.90;;;;;;5096725;28;20299;-70
2022/11/08 08:24:58;;;;;;;2.65;2.47;;;14.10;99.90;;;;;;5096835;28;20657;-70
2022/11/08 08:27:23;;;;;;;3.10;2.55;;;14.10;99.90;;;;;;5096578;28;20197;-70
2022/11/08 08:29:49;;;;;;;2.60;2.40;;;14.20;99.90;;;;;;5096717;28;20579;-70
2022/11/08 08:32:15;;;;;;;5.10;2.58;;;14.30;99.90;;;;;;5096688;28;20173;-70
2022/11/08 08:34:40;;;;;;;4.47;2.60;;;14.30;99.90;;;;;;5095372;28;20201;-70
2022/11/08 08:37:06;;;;;;;7.10;2.60;;;14.40;99.90;;;;;;5096865;28;20523;-70
2022/11/08 08:39:32;;;;;;;2.75;2.40;;;14.60;99.90;;;;;;5095237;28;20173;-70
2022/11/08 08:41:58;;;;;;;3.00;2.55;;;14.60;99.90;;;;;;5096232;28;20192;-70
2022/11/08 08:44:23;;;;;;;2.38;2.28;;;14.60;99.90;;;;;;5096320;28;20279;-71
2022/11/08 08:46:49;;;;;;;6.15;3.05;;;14.70;99.90;;;;;;5096552;28;20201;-70
2022/11/08 08:49:15;;;;;;;4.78;2.60;;;14.80;99.90;;;;;;5096380;28;20180;-70
2022/11/08 08:51:40;;;;;;;3.80;2.45;;;14.90;99.90;;;;;;5096259;28;20225;-70
2022/11/08 08:54:06;;;;;;;3.90;2.83;;;14.90;99.90;;;;;;5096138;28;20279;-70
2022/11/08 08:56:32;;;;;;;3.90;2.58;;;15.00;99.90;;;;;;5094765;28;20793;-69
2022/11/08 08:58:57;;;;;;;4.18;2.50;;;15.20;99.90;;;;;;5096200;28;20631;-70
2022/11/08 09:01:23;;;;;;;2.80;2.58;;;15.20;99.90;;;;;;5096157;28;20161;-70
2022/11/08 09:03:49;;;;;;;3.22;2.72;;;15.20;99.90;;;;;;5094750;28;20273;-70
2022/11/08 09:06:15;;;;;;;2.67;2.47;;;15.30;99.90;;;;;;5095985;28;20193;-70
2022/11/08 09:08:40;;;;;;;2.88;2.65;;;15.40;99.90;;;;;;5095904;28;20717;-70
2022/11/08 09:11:06;;;;;;;3.25;2.88;;;15.40;99.90;;;;;;5095369;28;20181;-70
2022/11/08 09:13:32;;;;;;;3.00;2.70;;;15.40;99.90;;;;;;5094869;28;20765;-70
2022/11/08 09:16:00;;;;;;;5.10;2.75;;;15.50;99.90;;;;;;5094356;28;20225;-70
2022/11/08 09:18:26;;;;;;;2.58;2.38;;;15.40;99.90;;;;;;5094479;28;20173;-70
2022/11/08 09:20:55;;;;;;;3.80;2.80;;;15.30;99.90;;;;;;5094468;28;20184;-70
2022/11/08 09:23:21;;;;;;;3.90;2.75;;;15.30;99.90;;;;;;5095588;28;20519;-70
2022/11/08 09:25:47;;;;;;;4.32;2.47;;;15.20;99.90;;;;;;5095588;28;20226;-70
2022/11/08 09:28:12;;;;;;;5.00;2.60;;;15.20;99.90;;;;;;5094172;28;20184;-70
2022/11/08 09:30:38;;;;;;;4.20;2.92;;;15.20;99.90;;;;;;5095429;28;20173;-70
2022/11/08 09:33:04;;;;;;;3.28;2.63;;;15.20;99.90;;;;;;5095955;28;20204;-70
2022/11/08 09:35:30;;;;;;;2.63;2.42;;;15.20;99.90;;;;;;5095373;28;20176;-70
2022/11/08 09:37:56;;;;;;;3.17;2.63;;;15.20;99.90;;;;;;5095284;28;20212;-70
2022/11/08 09:40:51;;;;;;;2.80;2.58;;;15.30;99.90;;;;;;5095263;28;20181;-70
2022/11/08 09:43:37;;;;;;;2.70;2.50;;;15.20;99.90;;;;;;5095190;28;20176;-70
2022/11/08 09:46:03;;;;;;;2.72;2.53;;;15.20;99.90;;;;;;5095161;28;20205;-70
2022/11/08 09:48:34;;;;;;;5.43;2.67;;;15.30;99.90;;;;;;5093784;28;20203;-69
2022/11/08 09:51:10;;;;;;;2.42;2.22;;;15.30;99.90;;;;;;5095678;28;20256;-70
2022/11/08 09:53:55;;;;;;;3.28;2.95;;;15.40;99.90;;;;;;5095105;28;20199;-70
2022/11/08 09:56:22;;;;;;;3.15;2.50;;;15.40;99.90;;;;;;5094014;28;20540;-70
2022/11/08 09:59:27;;;;;;;2.47;2.38;;;15.50;99.90;;;;;;5093827;28;20545;-70
2022/11/08 10:01:53;;;;;;;3.10;2.45;;;15.60;99.90;;;;;;5094854;28;20168;-70
2022/11/08 10:04:22;;;;;;;3.58;2.90;;;15.60;99.90;;;;;;5095370;28;20169;-70
2022/11/08 10:07:03;;;;;;;3.33;2.30;;;15.60;99.90;;;;;;5093488;28;20201;-70
2022/11/08 10:09:52;;;;;;;3.05;2.50;;;15.70;99.90;;;;;;5094876;28;20177;-70
2022/11/08 10:12:30;;;;;;;2.83;2.60;;;15.70;99.90;;;;;;5094463;28;20216;-69
2022/11/08 10:15:25;;;;;;;2.72;2.50;;;15.80;99.90;;;;;;5094546;28;20197;-70
2022/11/08 10:17:57;;;;;;;3.95;2.50;;;15.80;99.90;;;;;;5094816;28;20669;-70
2022/11/08 10:20:55;;;;;;;2.67;2.47;;;15.70;99.90;;;;;;5094885;28;20158;-70
2022/11/08 10:23:24;;;;;;;3.22;2.50;;;15.70;99.90;;;;;;5092890;28;20200;-70
2022/11/08 10:26:04;;;;;;;3.20;2.63;;;15.70;99.90;;;;;;5094378;28;20177;-70
2022/11/08 10:28:49;;;;;;;5.72;2.90;;;15.60;99.90;;;;;;5094443;28;20328;-70
2022/11/08 10:31:19;;;;;;;4.05;2.75;;;15.60;99.90;;;;;;5094713;28;20158;-70
2022/11/08 10:33:56;;;;;;;3.40;2.50;;;15.60;99.90;;;;;;5094344;28;20272;-70
2022/11/08 10:36:37;;;;;;;2.72;2.40;;;15.60;99.90;;;;;;5094176;28;20672;-70
2022/11/08 10:39:12;;;;;;;4.30;2.72;;;15.50;99.90;;;;;;5094853;28;20161;-70
2022/11/08 10:41:50;;;;;;;3.08;2.63;;;15.50;99.90;;;;;;5093894;28;20197;-70
2022/11/08 10:44:24;;;;;;;4.22;2.90;;;15.40;99.90;;;;;;5094309;28;20171;-70
2022/11/08 10:46:57;;;;;;;4.55;2.63;;;15.40;99.90;;;;;;5092752;28;20298;-69
2022/11/08 10:49:39;;;;;;;4.13;2.70;;;15.40;99.90;;;;;;5092746;28;20187;-69
2022/11/08 10:52:10;;;;;;;2.78;2.50;;;15.30;99.90;;;;;;5094245;28;20161;-69
2022/11/08 10:54:42;;;;;;;3.03;2.60;;;15.30;99.90;;;;;;5094001;28;20196;-69
2022/11/08 10:57:10;;;;;;;3.78;2.65;;;15.20;99.90;;;;;;5093776;28;20203;-69
2022/11/08 10:59:36;;;;;;;3.20;2.83;;;15.20;99.90;;;;;;5092614;28;20221;-69
2022/11/08 11:02:02;;;;;;;3.17;2.95;;;15.20;99.90;;;;;;5092535;28;20173;-69
2022/11/08 11:04:31;;;;;;;4.05;3.17;;;15.20;99.90;;;;;;5094196;28;20176;-69
2022/11/08 11:07:22;;;;;;;4.68;2.70;;;15.20;99.90;;;;;;5092501;28;20581;-69
2022/11/08 11:09:48;;;;;;;3.00;2.70;;;15.10;99.90;;;;;;5093782;28;20204;-69
2022/11/08 11:12:14;;;;;;;6.40;2.80;;;15.10;99.90;;;;;;5092912;28;20181;-69
2022/11/08 11:14:40;;;;;;;3.20;2.95;;;15.10;99.90;;;;;;5094146;28;20211;-69
2022/11/08 11:17:17;;;;;;;5.28;2.90;;;15.10;99.90;;;;;;5093561;28;20549;-69
2022/11/08 11:19:51;;;;;;;3.10;2.80;;;15.10;99.90;;;;;;5093625;28;20181;-69
2022/11/08 11:22:32;;;;;;;6.32;3.22;;;15.10;99.90;;;;;;5092401;28;20196;-69
2022/11/08 11:25:12;;;;;;;5.07;3.10;;;15.10;99.90;;;;;;5093796;28;20618;-69
2022/11/08 11:27:40;;;;;;;3.80;3.15;;;15.10;99.90;;;;;;5093341;28;20752;-69
2022/11/08 11:30:29;;;;;;;3.67;3.08;;;15.00;99.90;;;;;;5092236;28;20181;-69
2022/11/08 11:33:01;;;;;;;4.57;2.70;;;15.00;99.90;;;;;;5089154;28;20276;-69
2022/11/08 11:35:40;;;;;;;3.80;2.72;;;15.10;99.90;;;;;;5095402;28;20169;-69
2022/11/08 11:38:15;;;;;;;3.03;2.83;;;15.00;99.90;;;;;;5098016;28;20157;-69
2022/11/08 11:40:46;;;;;;;3.85;2.83;;;15.00;99.90;;;;;;5097644;28;20180;-69
2022/11/08 11:43:35;;;;;;;3.60;2.83;;;15.00;99.90;;;;;;5097391;28;20264;-69
2022/11/08 11:46:26;;;;;;;4.72;2.97;;;15.00;99.90;;;;;;5096057;28;20335;-69
2022/11/08 11:48:58;;;;;;;3.40;2.90;;;15.00;99.90;;;;;;5097574;28;20188;-69
2022/11/08 11:51:27;;;;;;;4.57;2.90;;;15.00;99.90;;;;;;5097738;28;20161;-69
2022/11/08 11:53:54;;;;;;;2.80;2.55;;;15.00;99.90;;;;;;5097820;28;20192;-69
2022/11/08 11:56:41;;;;;;;4.72;2.90;;;15.10;99.90;;;;;;5097230;28;20280;-69
2022/11/08 11:59:40;;;;;;;4.55;2.65;;;15.10;99.90;;;;;;5096180;28;20630;-69
2022/11/08 12:02:30;;;;;;;5.55;2.60;;;15.10;99.90;;;;;;5097189;28;20161;-69
2022/11/08 12:05:17;;;;;;;3.75;3.00;;;15.20;99.90;;;;;;5097694;28;20169;-69
2022/11/08 12:08:13;;;;;;;5.10;2.90;;;15.20;99.90;;;;;;5097016;28;20196;-69
2022/11/08 12:11:03;;;;;;;7.22;3.40;;;15.20;99.90;;;;;;5097335;28;20307;-69
2022/11/08 12:13:48;;;;;;;4.35;3.05;;;15.20;99.90;;;;;;5096727;28;20208;-69
2022/11/08 12:16:13;;;;;;;3.30;3.00;;;15.30;99.90;;;;;;5095613;28;20726;-69
2022/11/08 12:19:03;;;;;;;5.35;3.20;;;15.30;99.90;;;;;;5096871;28;20252;-69
2022/11/08 12:21:40;;;;;;;3.88;3.50;;;15.30;99.90;;;;;;5096839;28;20161;-69
2022/11/08 12:24:21;;;;;;;4.28;3.08;;;15.40;99.90;;;;;;5097143;28;20242;-69
2022/11/08 12:27:14;;;;;;;5.15;3.10;;;15.40;99.90;;;;;;5096927;28;20189;-69
2022/11/08 12:30:04;;;;;;;6.25;2.85;;;15.40;99.90;;;;;;5096664;28;20161;-69
2022/11/08 12:32:48;;;;;;;5.97;2.90;;;15.50;99.90;;;;;;5096733;28;20530;-69
2022/11/08 12:35:29;;;;;;;5.13;2.80;;;15.60;99.90;;;;;;5096762;28;20176;-69
2022/11/08 12:38:07;;;;;;;4.72;3.10;;;15.60;99.90;;;;;;5095964;28;20193;-69
2022/11/08 12:40:42;;;;;;;5.45;2.90;;;15.60;99.90;;;;;;5095227;28;20620;-69
2022/11/08 12:43:46;;;;;;;3.00;2.70;;;15.70;99.90;;;;;;5096315;28;20188;-69
2022/11/08 12:46:17;;;;;;;4.13;2.92;;;15.90;99.90;;;;;;5095550;28;20584;-69
2022/11/08 12:48:47;;;;;;;4.95;2.70;;;16.30;99.90;;;;;;5096821;28;20154;-69
2022/11/08 12:51:39;;;;;;;4.78;2.85;;;16.50;99.90;;;;;;5096392;28;20260;-69
2022/11/08 12:54:36;;;;;;;5.68;2.70;;;16.60;99.90;;;;;;5096652;28;20216;-68
2022/11/08 12:57:09;;;;;;;3.72;2.70;;;16.70;99.90;;;;;;5096075;28;20585;-69
2022/11/08 12:59:43;;;;;;;4.55;2.85;;;16.60;99.90;;;;;;5096807;28;20186;-69
2022/11/08 13:02:26;;;;;;;4.85;2.97;;;16.40;99.90;;;;;;5096735;28;20218;-69
2022/11/08 13:05:20;;;;;;;2.80;2.60;;;16.40;99.90;;;;;;5095008;28;20196;-69
2022/11/08 13:07:58;;;;;;;3.20;2.70;;;16.50;99.90;;;;;;5095882;28;20189;-69
2022/11/08 13:10:35;;;;;;;2.65;2.42;;;16.60;99.90;;;;;;5096268;28;20189;-69
2022/11/08 13:13:28;;;;;;;4.03;2.97;;;16.60;99.90;;;;;;5095626;28;20259;-69
2022/11/08 13:16:11;;;;;;;4.68;3.20;;;16.60;99.90;;;;;;5095977;28;20166;-69
2022/11/08 13:18:53;;;;;;;4.20;2.92;;;16.60;99.90;;;;;;5096297;28;20162;-69
2022/11/08 13:21:36;;;;;;;5.95;3.13;;;16.40;99.90;;;;;;5095986;28;20502;-69